Wetterdaten: Samstag, 01.09.2012
Datum Zeit Temperatur Luftfeuchte Regen Wind Richtung Richtung Taupunkt Windchill Windben
01.09.2012 00:00 8,4 C 96 % 0,0 l/m 0,2 km/h (0 Bft) S 180 7,8 C 8,2 C 0,0 km/h (0 Bft)
01.09.2012 00:05 8,4 C 96 % 0,0 l/m 0,0 km/h (0 Bft) O-SO 112 7,8 C 8,2 C 0,0 km/h (0 Bft)
01.09.2012 00:10 8,4 C 96 % 0,0 l/m 0,0 km/h (0 Bft) SO 135 7,8 C 8,2 C 0,0 km/h (0 Bft)
01.09.2012 00:15 8,4 C 96 % 0,0 l/m 0,0 km/h (0 Bft) NO 45 7,8 C 8,2 C 0,0 km/h (0 Bft)
01.09.2012 00:20 8,4 C 96 % 0,0 l/m 0,0 km/h (0 Bft) S 180 7,8 C 8,2 C 0,0 km/h (0 Bft)
01.09.2012 00:25 8,4 C 96 % 0,0 l/m 0,0 km/h (0 Bft) O-SO 112 7,8 C 8,2 C 0,0 km/h (0 Bft)
01.09.2012 00:30 8,4 C 96 % 0,0 l/m 0,0 km/h (0 Bft) N-NO 22 7,8 C 8,2 C 0,0 km/h (0 Bft)
01.09.2012 00:35 8,4 C 96 % 0,7 l/m 0,0 km/h (0 Bft) N-NO 22 7,8 C 8,2 C 0,0 km/h (0 Bft)
01.09.2012 00:40 8,4 C 96 % 0,0 l/m 0,0 km/h (0 Bft) NO 45 7,8 C 8,2 C 0,0 km/h (0 Bft)
01.09.2012 00:45 8,4 C 96 % 0,0 l/m 0,0 km/h (0 Bft) SO 135 7,8 C 8,2 C 0,0 km/h (0 Bft)
01.09.2012 00:50 8,5 C 96 % 0,0 l/m 0,0 km/h (0 Bft) S 180 7,9 C 8,2 C 0,0 km/h (0 Bft)
01.09.2012 00:55 8,5 C 96 % 0,0 l/m 0,0 km/h (0 Bft) NO 45 7,9 C 8,2 C 0,0 km/h (0 Bft)
01.09.2012 01:00 8,4 C 96 % 0,0 l/m 0,0 km/h (0 Bft) N-NW 337 7,8 C 8,2 C 0,0 km/h (0 Bft)
01.09.2012 01:05 8,5 C 96 % 0,0 l/m 0,0 km/h (0 Bft) N 360 7,9 C 8,3 C 0,0 km/h (0 Bft)
01.09.2012 01:10 8,5 C 96 % 0,0 l/m 0,0 km/h (0 Bft) N-NO 22 7,9 C 8,3 C 0,0 km/h (0 Bft)
01.09.2012 01:15 8,5 C 96 % 0,0 l/m 0,0 km/h (0 Bft) NO 45 7,9 C 8,3 C 0,0 km/h (0 Bft)
01.09.2012 01:20 8,3 C 96 % 0,0 l/m 0,0 km/h (0 Bft) NO 45 7,7 C 8,2 C 0,0 km/h (0 Bft)
01.09.2012 01:25 8,1 C 96 % 0,0 l/m 0,0 km/h (0 Bft) N-NO 22 7,5 C 8,2 C 0,0 km/h (0 Bft)
01.09.2012 01:30 8,2 C 96 % 0,0 l/m 0,0 km/h (0 Bft) N 360 7,6 C 8,1 C 0,0 km/h (0 Bft)
01.09.2012 01:35 8,3 C 96 % 0,7 l/m 0,0 km/h (0 Bft) NO 45 7,7 C 8,1 C 0,0 km/h (0 Bft)
01.09.2012 01:40 8,3 C 96 % 0,0 l/m 0,2 km/h (0 Bft) N 360 7,7 C 8,1 C 0,0 km/h (0 Bft)
01.09.2012 01:45 8,3 C 96 % 0,0 l/m 0,2 km/h (0 Bft) W-NW 292 7,7 C 8,1 C 2,6 km/h (1 Bft)
01.09.2012 01:50 8,3 C 96 % 0,0 l/m 0,2 km/h (0 Bft) N-NO 22 7,7 C 8,1 C 0,0 km/h (0 Bft)
01.09.2012 01:55 8,3 C 96 % 0,0 l/m 0,5 km/h (0 Bft) SO 135 7,7 C 8,1 C 2,3 km/h (1 Bft)
01.09.2012 02:00 8,4 C 96 % 0,0 l/m 1,4 km/h (1 Bft) O-SO 112 7,8 C 8,1 C 3,7 km/h (1 Bft)
01.09.2012 02:05 8,4 C 96 % 0,0 l/m 1,6 km/h (1 Bft) O 90 7,8 C 8,2 C 0,0 km/h (0 Bft)
01.09.2012 02:10 8,3 C 96 % 0,0 l/m 0,3 km/h (0 Bft) NW 315 7,7 C 8,2 C 0,0 km/h (0 Bft)
01.09.2012 02:15 8,3 C 96 % 0,0 l/m 0,0 km/h (0 Bft) NW 315 7,7 C 8,2 C 0,0 km/h (0 Bft)
01.09.2012 02:20 8,3 C 96 % 0,7 l/m 0,2 km/h (0 Bft) W-NW 292 7,7 C 8,2 C 1,8 km/h (1 Bft)
01.09.2012 02:25 8,3 C 96 % 0,0 l/m 0,2 km/h (0 Bft) N-NW 337 7,7 C 8,2 C 0,0 km/h (0 Bft)
01.09.2012 02:30 8,3 C 96 % 0,0 l/m 0,2 km/h (0 Bft) N-NW 337 7,7 C 8,2 C 0,0 km/h (0 Bft)
01.09.2012 02:35 8,3 C 96 % 0,0 l/m 0,2 km/h (0 Bft) NW 315 7,7 C 8,2 C 0,0 km/h (0 Bft)
01.09.2012 02:40 8,3 C 96 % 0,0 l/m 0,0 km/h (0 Bft) N 360 7,7 C 8,2 C 0,0 km/h (0 Bft)
01.09.2012 02:45 8,3 C 96 % 0,0 l/m 0,0 km/h (0 Bft) N-NW 337 7,7 C 8,1 C 0,0 km/h (0 Bft)
01.09.2012 02:50 8,3 C 96 % 0,0 l/m 0,0 km/h (0 Bft) NW 315 7,7 C 8,1 C 0,0 km/h (0 Bft)
01.09.2012 02:55 8,3 C 96 % 0,0 l/m 0,0 km/h (0 Bft) W-NW 292 7,7 C 8,1 C 0,0 km/h (0 Bft)
01.09.2012 03:00 8,4 C 96 % 0,0 l/m 0,0 km/h (0 Bft) O-NO 67 7,8 C 8,2 C 0,0 km/h (0 Bft)
01.09.2012 03:05 8,4 C 96 % 0,0 l/m 0,0 km/h (0 Bft) N 360 7,8 C 8,2 C 0,0 km/h (0 Bft)
01.09.2012 03:10 8,4 C 96 % 0,0 l/m 0,0 km/h (0 Bft) W-SW 247 7,8 C 8,2 C 0,0 km/h (0 Bft)
01.09.2012 03:15 8,4 C 96 % 0,0 l/m 0,0 km/h (0 Bft) SW 225 7,8 C 8,2 C 0,0 km/h (0 Bft)
01.09.2012 03:20 8,4 C 96 % 0,0 l/m 0,0 km/h (0 Bft) SO 135 7,8 C 8,2 C 0,0 km/h (0 Bft)
01.09.2012 03:25 8,4 C 96 % 0,0 l/m 0,0 km/h (0 Bft) N 360 7,8 C 8,2 C 0,0 km/h (0 Bft)
01.09.2012 03:30 8,3 C 96 % 0,0 l/m 0,2 km/h (0 Bft) NO 45 7,7 C 8,2 C 0,0 km/h (0 Bft)
01.09.2012 03:35 8,3 C 96 % 0,0 l/m 0,2 km/h (0 Bft) NO 45 7,7 C 8,2 C 0,0 km/h (0 Bft)
01.09.2012 03:40 8,3 C 96 % 0,0 l/m 0,0 km/h (0 Bft) O-NO 67 7,7 C 8,2 C 0,0 km/h (0 Bft)
01.09.2012 03:45 8,3 C 96 % 0,0 l/m 0,0 km/h (0 Bft) N-NO 22 7,7 C 8,2 C 0,0 km/h (0 Bft)
01.09.2012 03:50 8,4 C 96 % 0,0 l/m 0,0 km/h (0 Bft) N-NO 22 7,8 C 8,2 C 0,0 km/h (0 Bft)
01.09.2012 03:55 8,4 C 96 % 0,0 l/m 0,0 km/h (0 Bft) NO 45 7,8 C 8,2 C 0,0 km/h (0 Bft)
01.09.2012 04:00 8,4 C 96 % 0,0 l/m 0,0 km/h (0 Bft) N-NO 22 7,8 C 8,2 C 0,0 km/h (0 Bft)
01.09.2012 04:05 8,4 C 96 % 0,0 l/m 0,0 km/h (0 Bft) N-NO 22 7,8 C 8,2 C 0,0 km/h (0 Bft)
01.09.2012 04:10 8,4 C 96 % 0,7 l/m 0,0 km/h (0 Bft) O-NO 67 7,8 C 8,2 C 0,0 km/h (0 Bft)
01.09.2012 04:15 8,4 C 96 % 0,0 l/m 0,0 km/h (0 Bft) N-NO 22 7,8 C 8,2 C 0,0 km/h (0 Bft)
01.09.2012 04:20 8,3 C 96 % 0,0 l/m 0,0 km/h (0 Bft) N 360 7,7 C 8,2 C 0,0 km/h (0 Bft)
01.09.2012 04:25 8,3 C 96 % 0,0 l/m 0,0 km/h (0 Bft) N 360 7,7 C 8,2 C 0,0 km/h (0 Bft)
01.09.2012 04:30 8,4 C 96 % 0,0 l/m 0,0 km/h (0 Bft) N-NO 22 7,8 C 8,2 C 0,0 km/h (0 Bft)
01.09.2012 04:35 8,4 C 96 % 0,0 l/m 0,0 km/h (0 Bft) NW 315 7,8 C 8,2 C 0,0 km/h (0 Bft)
01.09.2012 04:40 8,4 C 96 % 0,0 l/m 0,0 km/h (0 Bft) W-SW 247 7,8 C 8,2 C 0,0 km/h (0 Bft)
01.09.2012 04:45 8,3 C 96 % 0,0 l/m 0,2 km/h (0 Bft) N 360 7,7 C 8,2 C 0,0 km/h (0 Bft)
01.09.2012 04:50 8,3 C 96 % 0,0 l/m 0,0 km/h (0 Bft) W 270 7,7 C 8,1 C 0,0 km/h (0 Bft)
01.09.2012 04:55 8,3 C 96 % 0,0 l/m 0,0 km/h (0 Bft) W 270 7,7 C 8,1 C 0,0 km/h (0 Bft)
01.09.2012 05:00 8,3 C 96 % 0,0 l/m 0,0 km/h (0 Bft) NW 315 7,7 C 8,1 C 0,0 km/h (0 Bft)
01.09.2012 05:05 8,3 C 96 % 0,0 l/m 0,0 km/h (0 Bft) N-NO 22 7,7 C 8,1 C 0,0 km/h (0 Bft)
01.09.2012 05:10 8,3 C 96 % 0,0 l/m 0,2 km/h (0 Bft) W-NW 292 7,7 C 8,1 C 0,0 km/h (0 Bft)
01.09.2012 05:15 8,3 C 96 % 0,0 l/m 0,2 km/h (0 Bft) SW 225 7,7 C 8,1 C 0,0 km/h (0 Bft)
01.09.2012 05:20 8,4 C 96 % 0,0 l/m 0,0 km/h (0 Bft) W 270 7,8 C 8,2 C 0,0 km/h (0 Bft)
01.09.2012 05:25 8,4 C 96 % 0,0 l/m 0,0 km/h (0 Bft) S 180 7,8 C 8,2 C 0,0 km/h (0 Bft)
01.09.2012 05:30 8,4 C 96 % 0,0 l/m 0,3 km/h (0 Bft) W 270 7,8 C 8,2 C 2,1 km/h (1 Bft)
01.09.2012 05:35 8,2 C 96 % 0,0 l/m 0,3 km/h (0 Bft) W-SW 247 7,6 C 8,2 C 0,0 km/h (0 Bft)
01.09.2012 05:40 8,2 C 96 % 0,0 l/m 0,2 km/h (0 Bft) SW 225 7,6 C 8,2 C 0,0 km/h (0 Bft)
01.09.2012 05:45 8,2 C 96 % 0,0 l/m 0,0 km/h (0 Bft) S 180 7,6 C 8,1 C 0,0 km/h (0 Bft)
01.09.2012 05:50 8,2 C 96 % 0,0 l/m 0,0 km/h (0 Bft) W-SW 247 7,6 C 8,0 C 0,0 km/h (0 Bft)
01.09.2012 05:55 8,2 C 96 % 0,0 l/m 0,0 km/h (0 Bft) W-SW 247 7,6 C 8,0 C 0,0 km/h (0 Bft)
01.09.2012 06:00 8,2 C 96 % 0,0 l/m 0,0 km/h (0 Bft) W-SW 247 7,6 C 7,9 C 0,0 km/h (0 Bft)
01.09.2012 06:05 8,1 C 96 % 0,0 l/m 0,0 km/h (0 Bft) W-NW 292 7,5 C 7,9 C 0,0 km/h (0 Bft)
01.09.2012 06:10 8,1 C 96 % 0,0 l/m 0,0 km/h (0 Bft) N-NW 337 7,5 C 7,9 C 0,0 km/h (0 Bft)
01.09.2012 06:15 8,1 C 96 % 0,0 l/m 0,0 km/h (0 Bft) W-NW 292 7,5 C 7,9 C 0,0 km/h (0 Bft)
01.09.2012 06:20 8,2 C 96 % 0,0 l/m 0,0 km/h (0 Bft) O 90 7,6 C 7,9 C 0,0 km/h (0 Bft)
01.09.2012 06:25 8,2 C 96 % 0,0 l/m 0,0 km/h (0 Bft) S-SW 202 7,6 C 7,9 C 0,0 km/h (0 Bft)
01.09.2012 06:30 8,2 C 96 % 0,0 l/m 0,0 km/h (0 Bft) N 360 7,6 C 8,0 C 0,0 km/h (0 Bft)
01.09.2012 06:35 8,2 C 96 % 0,0 l/m 0,0 km/h (0 Bft) NW 315 7,6 C 8,0 C 0,0 km/h (0 Bft)
01.09.2012 06:40 8,3 C 96 % 0,0 l/m 0,0 km/h (0 Bft) O-NO 67 7,7 C 8,0 C 0,0 km/h (0 Bft)
01.09.2012 06:45 8,3 C 96 % 0,0 l/m 0,0 km/h (0 Bft) SO 135 7,7 C 8,1 C 0,0 km/h (0 Bft)
01.09.2012 06:50 8,3 C 96 % 0,0 l/m 0,0 km/h (0 Bft) O-SO 112 7,7 C 8,1 C 0,0 km/h (0 Bft)
01.09.2012 06:55 8,3 C 96 % 0,0 l/m 0,0 km/h (0 Bft) N-NW 337 7,7 C 8,2 C 0,0 km/h (0 Bft)
01.09.2012 07:00 8,3 C 96 % 0,0 l/m 0,2 km/h (0 Bft) W 270 7,7 C 8,2 C 2,4 km/h (1 Bft)
01.09.2012 07:05 8,3 C 96 % 0,0 l/m 0,6 km/h (0 Bft) W-NW 292 7,7 C 8,2 C 3,2 km/h (1 Bft)
01.09.2012 07:10 8,2 C 96 % 0,0 l/m 1,6 km/h (1 Bft) W-NW 292 7,6 C 8,2 C 3,9 km/h (1 Bft)
01.09.2012 07:15 8,2 C 96 % 0,0 l/m 1,3 km/h (1 Bft) N-NW 337 7,6 C 8,2 C 0,0 km/h (0 Bft)
01.09.2012 07:20 8,3 C 96 % 0,0 l/m 0,6 km/h (0 Bft) W-SW 247 7,7 C 8,2 C 2,4 km/h (1 Bft)
01.09.2012 07:25 8,3 C 96 % 0,0 l/m 0,5 km/h (0 Bft) W-SW 247 7,7 C 8,2 C 0,0 km/h (0 Bft)
01.09.2012 07:30 8,4 C 96 % 0,0 l/m 0,5 km/h (0 Bft) W 270 7,8 C 8,2 C 0,0 km/h (0 Bft)
01.09.2012 07:35 8,3 C 96 % 0,0 l/m 0,2 km/h (0 Bft) SW 225 7,7 C 8,2 C 1,6 km/h (1 Bft)
01.09.2012 07:40 8,4 C 96 % 0,0 l/m 0,0 km/h (0 Bft) W 270 7,8 C 8,2 C 0,0 km/h (0 Bft)
01.09.2012 07:45 8,4 C 96 % 0,0 l/m 0,2 km/h (0 Bft) W-NW 292 7,8 C 8,2 C 1,8 km/h (1 Bft)
01.09.2012 07:50 8,4 C 96 % 0,0 l/m 0,5 km/h (0 Bft) NW 315 7,8 C 8,2 C 0,0 km/h (0 Bft)
01.09.2012 07:55 8,3 C 96 % 0,0 l/m 0,6 km/h (0 Bft) NW 315 7,7 C 8,2 C 0,0 km/h (0 Bft)
01.09.2012 08:00 8,3 C 96 % 0,0 l/m 0,5 km/h (0 Bft) N-NW 337 7,7 C 8,2 C 0,0 km/h (0 Bft)
01.09.2012 08:05 8,4 C 96 % 0,0 l/m 0,3 km/h (0 Bft) W-SW 247 7,8 C 8,2 C 0,0 km/h (0 Bft)
01.09.2012 08:10 8,6 C 96 % 0,0 l/m 0,2 km/h (0 Bft) W-SW 247 8,0 C 8,4 C 2,4 km/h (1 Bft)
01.09.2012 08:15 8,5 C 96 % 0,0 l/m 0,6 km/h (0 Bft) W-SW 247 7,9 C 8,4 C 4,0 km/h (1 Bft)
01.09.2012 08:20 8,5 C 96 % 0,0 l/m 1,4 km/h (1 Bft) NW 315 7,9 C 8,5 C 2,7 km/h (1 Bft)
01.09.2012 08:25 8,6 C 96 % 0,0 l/m 1,3 km/h (1 Bft) W-NW 292 8,0 C 8,5 C 0,0 km/h (0 Bft)
01.09.2012 08:30 8,6 C 96 % 0,0 l/m 0,6 km/h (0 Bft) O 90 8,0 C 8,6 C 0,0 km/h (0 Bft)
01.09.2012 08:35 8,7 C 96 % 0,0 l/m 0,6 km/h (0 Bft) W-SW 247 8,1 C 8,6 C 2,4 km/h (1 Bft)
01.09.2012 08:40 8,7 C 96 % 0,0 l/m 2,1 km/h (1 Bft) W-SW 247 8,1 C 8,7 C 6,1 km/h (2 Bft)
01.09.2012 08:45 8,7 C 96 % 0,0 l/m 2,7 km/h (1 Bft) N 360 8,1 C 8,9 C 1,9 km/h (1 Bft)
01.09.2012 08:50 8,8 C 96 % 0,0 l/m 2,6 km/h (1 Bft) W-NW 292 8,2 C 8,9 C 4,8 km/h (1 Bft)
01.09.2012 08:55 8,7 C 96 % 0,0 l/m 1,9 km/h (1 Bft) W-NW 292 8,1 C 9,1 C 2,7 km/h (1 Bft)
01.09.2012 09:00 9,0 C 96 % 0,0 l/m 1,3 km/h (1 Bft) W-SW 247 8,4 C 9,1 C 2,4 km/h (1 Bft)
01.09.2012 09:05 9,1 C 96 % 0,0 l/m 1,6 km/h (1 Bft) W 270 8,5 C 9,4 C 2,7 km/h (1 Bft)
01.09.2012 09:10 9,0 C 96 % 0,0 l/m 2,7 km/h (1 Bft) W-SW 247 8,4 C 9,6 C 2,1 km/h (1 Bft)
01.09.2012 09:15 9,2 C 96 % 0,0 l/m 3,2 km/h (1 Bft) W-NW 292 8,6 C 9,7 C 5,8 km/h (2 Bft)
01.09.2012 09:20 9,2 C 96 % 0,0 l/m 3,2 km/h (1 Bft) N-NW 337 8,6 C 9,8 C 7,2 km/h (2 Bft)
01.09.2012 09:25 9,3 C 96 % 0,0 l/m 3,2 km/h (1 Bft) W-NW 292 8,7 C 9,9 C 2,7 km/h (1 Bft)
01.09.2012 09:30 9,4 C 96 % 0,0 l/m 3,4 km/h (1 Bft) SW 225 8,8 C 10,1 C 4,0 km/h (1 Bft)
01.09.2012 09:35 9,4 C 96 % 0,0 l/m 3,2 km/h (1 Bft) W-SW 247 8,8 C 10,1 C 2,4 km/h (1 Bft)
01.09.2012 09:40 9,4 C 96 % 0,0 l/m 2,9 km/h (1 Bft) W-NW 292 8,8 C 10,2 C 4,7 km/h (1 Bft)
01.09.2012 09:45 9,3 C 96 % 0,0 l/m 3,1 km/h (1 Bft) W-SW 247 8,7 C 10,2 C 1,6 km/h (1 Bft)
01.09.2012 09:50 9,4 C 96 % 0,0 l/m 3,1 km/h (1 Bft) W-SW 247 8,8 C 10,2 C 7,6 km/h (2 Bft)
01.09.2012 09:55 9,3 C 96 % 0,0 l/m 2,3 km/h (1 Bft) W-NW 292 8,7 C 10,1 C 5,0 km/h (1 Bft)
01.09.2012 10:00 9,5 C 96 % 0,0 l/m 1,8 km/h (1 Bft) W-NW 292 8,9 C 10,1 C 3,1 km/h (1 Bft)
01.09.2012 10:05 9,5 C 96 % 0,0 l/m 1,8 km/h (1 Bft) W-NW 292 8,9 C 10,2 C 3,7 km/h (1 Bft)
01.09.2012 10:10 9,4 C 96 % 0,0 l/m 2,6 km/h (1 Bft) O-SO 112 8,8 C 10,2 C 4,3 km/h (1 Bft)
01.09.2012 10:15 9,4 C 96 % 0,0 l/m 2,9 km/h (1 Bft) W-NW 292 8,8 C 10,2 C 3,7 km/h (1 Bft)
01.09.2012 10:20 9,3 C 96 % 0,0 l/m 2,1 km/h (1 Bft) W-NW 292 8,7 C 10,1 C 0,0 km/h (0 Bft)
01.09.2012 10:25 9,3 C 96 % 0,0 l/m 1,9 km/h (1 Bft) W-NW 292 8,7 C 10,1 C 2,7 km/h (1 Bft)
01.09.2012 10:30 9,6 C 96 % 0,0 l/m 1,6 km/h (1 Bft) SW 225 9,0 C 10,2 C 2,4 km/h (1 Bft)
01.09.2012 10:35 9,8 C 96 % 0,0 l/m 1,8 km/h (1 Bft) W-SW 247 9,2 C 10,4 C 3,4 km/h (1 Bft)
01.09.2012 10:40 9,8 C 96 % 0,0 l/m 2,4 km/h (1 Bft) W-SW 247 9,2 C 10,6 C 6,6 km/h (2 Bft)
01.09.2012 10:45 9,8 C 96 % 0,0 l/m 2,9 km/h (1 Bft) W-NW 292 9,2 C 10,6 C 0,0 km/h (0 Bft)
01.09.2012 10:50 9,7 C 96 % 0,0 l/m 2,9 km/h (1 Bft) W-NW 292 9,1 C 10,5 C 3,1 km/h (1 Bft)
01.09.2012 10:55 9,7 C 96 % 0,0 l/m 2,6 km/h (1 Bft) W-SW 247 9,1 C 10,4 C 2,6 km/h (1 Bft)
01.09.2012 11:00 9,5 C 96 % 0,0 l/m 3,1 km/h (1 Bft) N-NW 337 8,9 C 10,2 C 3,9 km/h (1 Bft)
01.09.2012 11:05 9,4 C 96 % 0,0 l/m 2,7 km/h (1 Bft) NO 45 8,8 C 9,9 C 2,9 km/h (1 Bft)
01.09.2012 11:10 9,4 C 96 % 0,0 l/m 2,3 km/h (1 Bft) W-NW 292 8,8 C 9,8 C 1,6 km/h (1 Bft)
01.09.2012 11:15 9,5 C 96 % 0,0 l/m 2,1 km/h (1 Bft) W-SW 247 8,9 C 9,7 C 6,0 km/h (2 Bft)
01.09.2012 11:20 9,5 C 96 % 0,0 l/m 1,8 km/h (1 Bft) S-SW 202 8,9 C 9,8 C 2,1 km/h (1 Bft)
01.09.2012 11:25 9,6 C 96 % 0,0 l/m 2,1 km/h (1 Bft) W-NW 292 9,0 C 9,9 C 4,0 km/h (1 Bft)
01.09.2012 11:30 9,7 C 96 % 0,0 l/m 2,6 km/h (1 Bft) W-SW 247 9,1 C 10,0 C 0,0 km/h (0 Bft)
01.09.2012 11:35 9,8 C 96 % 0,0 l/m 2,6 km/h (1 Bft) W-SW 247 9,2 C 10,1 C 0,0 km/h (0 Bft)
01.09.2012 11:40 9,7 C 96 % 0,0 l/m 1,8 km/h (1 Bft) W-SW 247 9,1 C 10,3 C 2,9 km/h (1 Bft)
01.09.2012 11:45 9,7 C 96 % 0,0 l/m 2,1 km/h (1 Bft) W 270 9,1 C 10,3 C 4,0 km/h (1 Bft)
01.09.2012 11:50 9,8 C 96 % 0,0 l/m 3,2 km/h (1 Bft) W 270 9,2 C 10,3 C 8,0 km/h (2 Bft)
01.09.2012 11:55 9,8 C 96 % 0,0 l/m 2,9 km/h (1 Bft) NW 315 9,2 C 10,4 C 1,8 km/h (1 Bft)
01.09.2012 12:00 9,9 C 96 % 0,0 l/m 2,6 km/h (1 Bft) W-NW 292 9,3 C 10,5 C 4,8 km/h (1 Bft)
01.09.2012 12:05 9,9 C 96 % 0,0 l/m 2,9 km/h (1 Bft) NW 315 9,3 C 10,5 C 3,5 km/h (1 Bft)
01.09.2012 12:10 10,0 C 96 % 0,0 l/m 3,1 km/h (1 Bft) W-NW 292 9,4 C 10,6 C 4,5 km/h (1 Bft)
01.09.2012 12:15 10,0 C 96 % 0,0 l/m 2,6 km/h (1 Bft) W-NW 292 9,4 C 10,6 C 0,0 km/h (0 Bft)
01.09.2012 12:20 10,1 C 96 % 0,0 l/m 3,2 km/h (1 Bft) W 270 9,5 C 10,5 C 6,6 km/h (2 Bft)
01.09.2012 12:25 10,0 C 95 % 0,0 l/m 3,2 km/h (1 Bft) O 90 9,2 C 10,5 C 2,1 km/h (1 Bft)
01.09.2012 12:30 10,3 C 95 % 0,0 l/m 3,9 km/h (1 Bft) W 270 9,5 C 10,7 C 8,5 km/h (2 Bft)
01.09.2012 12:35 10,4 C 95 % 0,0 l/m 4,0 km/h (1 Bft) W-NW 292 9,6 C 10,7 C 2,7 km/h (1 Bft)
01.09.2012 12:40 10,4 C 95 % 0,0 l/m 3,9 km/h (1 Bft) W-NW 292 9,6 C 10,9 C 1,9 km/h (1 Bft)
01.09.2012 12:45 10,4 C 95 % 0,0 l/m 4,0 km/h (1 Bft) S 180 9,6 C 10,9 C 5,5 km/h (1 Bft)
01.09.2012 12:50 10,6 C 95 % 0,0 l/m 3,9 km/h (1 Bft) NO 45 9,8 C 11,2 C 4,5 km/h (1 Bft)
01.09.2012 12:55 10,7 C 95 % 0,0 l/m 3,5 km/h (1 Bft) W 270 9,9 C 11,3 C 5,3 km/h (1 Bft)
01.09.2012 13:00 10,6 C 95 % 0,0 l/m 3,5 km/h (1 Bft) O-NO 67 9,8 C 11,3 C 0,0 km/h (0 Bft)
01.09.2012 13:05 10,6 C 95 % 0,0 l/m 4,0 km/h (1 Bft) W 270 9,8 C 11,3 C 5,6 km/h (1 Bft)
01.09.2012 13:10 10,7 C 95 % 0,0 l/m 3,7 km/h (1 Bft) N-NW 337 9,9 C 11,2 C 8,4 km/h (2 Bft)
01.09.2012 13:15 10,8 C 95 % 0,0 l/m 3,7 km/h (1 Bft) W 270 10,0 C 11,3 C 2,6 km/h (1 Bft)
01.09.2012 13:20 11,0 C 95 % 0,0 l/m 3,2 km/h (1 Bft) N 360 10,2 C 11,4 C 1,9 km/h (1 Bft)
01.09.2012 13:25 10,6 C 95 % 0,0 l/m 2,7 km/h (1 Bft) W-SW 247 9,8 C 11,3 C 3,2 km/h (1 Bft)
01.09.2012 13:30 10,4 C 95 % 0,0 l/m 3,5 km/h (1 Bft) SW 225 9,6 C 10,9 C 9,3 km/h (2 Bft)
01.09.2012 13:35 10,5 C 95 % 0,0 l/m 3,9 km/h (1 Bft) W-SW 247 9,7 C 10,6 C 6,8 km/h (2 Bft)
01.09.2012 13:40 10,6 C 95 % 0,0 l/m 4,2 km/h (1 Bft) W-NW 292 9,8 C 10,6 C 4,3 km/h (1 Bft)
01.09.2012 13:45 10,6 C 95 % 0,0 l/m 4,0 km/h (1 Bft) NW 315 9,8 C 10,6 C 6,0 km/h (2 Bft)
01.09.2012 13:50 10,6 C 95 % 0,0 l/m 3,4 km/h (1 Bft) W-NW 292 9,8 C 10,6 C 11,3 km/h (2 Bft)
01.09.2012 13:55 10,5 C 95 % 0,0 l/m 3,5 km/h (1 Bft) NW 315 9,7 C 10,6 C 2,7 km/h (1 Bft)
01.09.2012 14:00 10,2 C 95 % 0,0 l/m 4,5 km/h (1 Bft) W-SW 247 9,4 C 10,3 C 13,2 km/h (3 Bft)
01.09.2012 14:05 10,2 C 95 % 0,0 l/m 4,5 km/h (1 Bft) N-NW 337 9,4 C 10,2 C 4,8 km/h (1 Bft)
01.09.2012 14:10 10,1 C 95 % 0,0 l/m 3,9 km/h (1 Bft) W 270 9,3 C 10,2 C 7,1 km/h (2 Bft)
01.09.2012 14:15 10,2 C 95 % 0,0 l/m 3,7 km/h (1 Bft) S 180 9,4 C 10,2 C 2,7 km/h (1 Bft)
01.09.2012 14:20 10,1 C 95 % 0,0 l/m 4,8 km/h (1 Bft) W 270 9,3 C 10,1 C 8,9 km/h (2 Bft)
01.09.2012 14:25 10,0 C 95 % 0,0 l/m 5,5 km/h (1 Bft) W 270 9,2 C 9,7 C 6,3 km/h (2 Bft)
01.09.2012 14:30 10,0 C 95 % 0,0 l/m 5,1 km/h (1 Bft) S-SW 202 9,2 C 9,8 C 5,3 km/h (1 Bft)
01.09.2012 14:35 10,0 C 95 % 0,0 l/m 4,8 km/h (1 Bft) W-SW 247 9,2 C 9,9 C 5,5 km/h (1 Bft)
01.09.2012 14:40 10,0 C 95 % 0,0 l/m 4,0 km/h (1 Bft) W-NW 292 9,2 C 10,0 C 7,2 km/h (2 Bft)
01.09.2012 14:45 9,9 C 95 % 0,0 l/m 4,3 km/h (1 Bft) W-NW 292 9,1 C 9,9 C 5,0 km/h (1 Bft)
01.09.2012 14:50 10,0 C 95 % 0,0 l/m 5,1 km/h (1 Bft) W 270 9,2 C 9,7 C 5,8 km/h (2 Bft)
01.09.2012 14:55 10,1 C 95 % 0,0 l/m 5,0 km/h (1 Bft) W-SW 247 9,3 C 10,0 C 7,6 km/h (2 Bft)
01.09.2012 15:00 10,2 C 95 % 0,0 l/m 5,0 km/h (1 Bft) N 360 9,4 C 10,0 C 4,3 km/h (1 Bft)
01.09.2012 15:05 10,3 C 95 % 0,0 l/m 4,7 km/h (1 Bft) W-NW 292 9,5 C 10,3 C 5,8 km/h (2 Bft)
01.09.2012 15:10 10,2 C 95 % 0,0 l/m 4,5 km/h (1 Bft) W-SW 247 9,4 C 10,6 C 7,4 km/h (2 Bft)
01.09.2012 15:15 10,4 C 95 % 0,0 l/m 4,2 km/h (1 Bft) W-SW 247 9,6 C 10,7 C 4,0 km/h (1 Bft)
01.09.2012 15:20 10,4 C 95 % 0,0 l/m 4,2 km/h (1 Bft) W-NW 292 9,6 C 10,8 C 7,6 km/h (2 Bft)
01.09.2012 15:25 10,3 C 95 % 0,0 l/m 4,8 km/h (1 Bft) W-SW 247 9,5 C 10,6 C 4,8 km/h (1 Bft)
01.09.2012 15:30 10,5 C 95 % 0,0 l/m 5,3 km/h (1 Bft) W-SW 247 9,7 C 10,7 C 4,8 km/h (1 Bft)
01.09.2012 15:35 10,8 C 95 % 0,0 l/m 4,5 km/h (1 Bft) W 270 10,0 C 11,1 C 7,7 km/h (2 Bft)
01.09.2012 15:40 10,7 C 95 % 0,0 l/m 5,1 km/h (1 Bft) W-NW 292 9,9 C 11,3 C 14,2 km/h (3 Bft)
01.09.2012 15:45 10,9 C 95 % 0,0 l/m 6,6 km/h (2 Bft) N-NW 337 10,1 C 11,0 C 12,4 km/h (3 Bft)
01.09.2012 15:50 11,1 C 95 % 0,0 l/m 6,6 km/h (2 Bft) NO 45 10,3 C 11,1 C 11,6 km/h (2 Bft)
01.09.2012 15:55 11,2 C 95 % 0,0 l/m 5,5 km/h (1 Bft) NO 45 10,4 C 11,6 C 4,2 km/h (1 Bft)
01.09.2012 16:00 11,5 C 95 % 0,0 l/m 4,3 km/h (1 Bft) W-NW 292 10,7 C 12,2 C 3,4 km/h (1 Bft)
01.09.2012 16:05 11,4 C 94 % 0,0 l/m 4,0 km/h (1 Bft) W 270 10,5 C 12,5 C 10,1 km/h (2 Bft)
01.09.2012 16:10 11,4 C 94 % 0,0 l/m 4,3 km/h (1 Bft) W-NW 292 10,5 C 12,3 C 6,8 km/h (2 Bft)
01.09.2012 16:15 11,0 C 94 % 0,0 l/m 4,5 km/h (1 Bft) NW 315 10,1 C 12,1 C 6,4 km/h (2 Bft)
01.09.2012 16:20 11,0 C 94 % 0,0 l/m 4,0 km/h (1 Bft) W-NW 292 10,1 C 11,6 C 3,9 km/h (1 Bft)
01.09.2012 16:25 11,0 C 94 % 0,0 l/m 3,5 km/h (1 Bft) W-SW 247 10,1 C 11,6 C 3,7 km/h (1 Bft)
01.09.2012 16:30 11,1 C 94 % 0,0 l/m 3,5 km/h (1 Bft) W 270 10,2 C 11,6 C 5,0 km/h (1 Bft)
01.09.2012 16:35 11,0 C 94 % 0,0 l/m 4,8 km/h (1 Bft) S-SO 157 10,1 C 11,6 C 10,0 km/h (2 Bft)
01.09.2012 16:40 11,0 C 94 % 0,0 l/m 5,3 km/h (1 Bft) NW 315 10,1 C 11,5 C 6,1 km/h (2 Bft)
01.09.2012 16:45 11,0 C 94 % 0,0 l/m 5,0 km/h (1 Bft) S 180 10,1 C 11,4 C 0,0 km/h (0 Bft)
01.09.2012 16:50 11,0 C 94 % 0,0 l/m 3,7 km/h (1 Bft) N 360 10,1 C 11,5 C 1,9 km/h (1 Bft)
01.09.2012 16:55 10,9 C 94 % 0,0 l/m 3,2 km/h (1 Bft) W-SW 247 10,0 C 11,5 C 5,5 km/h (1 Bft)
01.09.2012 17:00 10,9 C 94 % 0,0 l/m 4,3 km/h (1 Bft) N-NW 337 10,0 C 11,4 C 4,8 km/h (1 Bft)
01.09.2012 17:05 10,9 C 94 % 0,0 l/m 4,2 km/h (1 Bft) W-SW 247 10,0 C 11,4 C 9,2 km/h (2 Bft)
01.09.2012 17:10 10,8 C 94 % 0,0 l/m 3,5 km/h (1 Bft) S 180 9,9 C 11,2 C 2,9 km/h (1 Bft)
01.09.2012 17:15 10,8 C 94 % 0,0 l/m 4,2 km/h (1 Bft) W 270 9,9 C 11,2 C 4,8 km/h (1 Bft)
01.09.2012 17:20 10,7 C 93 % 0,0 l/m 4,8 km/h (1 Bft) W 270 9,6 C 11,1 C 7,4 km/h (2 Bft)
01.09.2012 17:25 10,7 C 93 % 0,0 l/m 5,6 km/h (1 Bft) W-SW 247 9,6 C 10,8 C 2,1 km/h (1 Bft)
01.09.2012 17:30 10,8 C 93 % 0,0 l/m 4,0 km/h (1 Bft) W-NW 292 9,7 C 11,1 C 6,0 km/h (2 Bft)
01.09.2012 17:35 10,7 C 93 % 0,0 l/m 3,7 km/h (1 Bft) W 270 9,6 C 11,1 C 3,7 km/h (1 Bft)
01.09.2012 17:40 10,7 C 93 % 0,0 l/m 4,5 km/h (1 Bft) W-NW 292 9,6 C 11,1 C 4,3 km/h (1 Bft)
01.09.2012 17:45 10,7 C 93 % 0,0 l/m 4,3 km/h (1 Bft) W-NW 292 9,6 C 11,0 C 12,6 km/h (3 Bft)
01.09.2012 17:50 10,8 C 93 % 0,0 l/m 4,8 km/h (1 Bft) W 270 9,7 C 11,1 C 5,0 km/h (1 Bft)
01.09.2012 17:55 10,8 C 93 % 0,0 l/m 5,5 km/h (1 Bft) N-NW 337 9,7 C 10,9 C 4,2 km/h (1 Bft)
01.09.2012 18:00 10,9 C 93 % 0,0 l/m 5,0 km/h (1 Bft) W-NW 292 9,8 C 11,2 C 5,6 km/h (1 Bft)
01.09.2012 18:05 11,1 C 93 % 0,0 l/m 4,0 km/h (1 Bft) W-NW 292 10,0 C 11,4 C 6,9 km/h (2 Bft)
01.09.2012 18:10 11,0 C 93 % 0,0 l/m 5,0 km/h (1 Bft) W-SW 247 9,9 C 11,3 C 8,0 km/h (2 Bft)
01.09.2012 18:15 11,0 C 93 % 0,0 l/m 5,0 km/h (1 Bft) W 270 9,9 C 11,3 C 6,1 km/h (2 Bft)
01.09.2012 18:20 10,8 C 92 % 0,0 l/m 5,3 km/h (1 Bft) W-SW 247 9,6 C 11,1 C 5,8 km/h (2 Bft)
01.09.2012 18:25 10,7 C 92 % 0,0 l/m 5,5 km/h (1 Bft) W-SW 247 9,5 C 10,9 C 5,8 km/h (2 Bft)
01.09.2012 18:30 10,8 C 92 % 0,0 l/m 4,3 km/h (1 Bft) W-NW 292 9,6 C 11,1 C 3,9 km/h (1 Bft)
01.09.2012 18:35 10,8 C 92 % 0,0 l/m 4,5 km/h (1 Bft) W 270 9,6 C 11,1 C 6,9 km/h (2 Bft)
01.09.2012 18:40 10,7 C 92 % 0,0 l/m 4,8 km/h (1 Bft) W 270 9,5 C 10,9 C 7,7 km/h (2 Bft)
01.09.2012 18:45 10,8 C 92 % 0,0 l/m 4,7 km/h (1 Bft) W 270 9,6 C 10,8 C 4,5 km/h (1 Bft)
01.09.2012 18:50 10,8 C 92 % 0,0 l/m 3,5 km/h (1 Bft) W 270 9,6 C 10,9 C 3,4 km/h (1 Bft)
01.09.2012 18:55 10,8 C 93 % 0,0 l/m 2,9 km/h (1 Bft) W-NW 292 9,7 C 10,9 C 2,3 km/h (1 Bft)
01.09.2012 19:00 10,8 C 93 % 0,0 l/m 2,7 km/h (1 Bft) SW 225 9,7 C 10,9 C 0,0 km/h (0 Bft)
01.09.2012 19:05 10,8 C 93 % 0,0 l/m 3,4 km/h (1 Bft) W 270 9,7 C 10,9 C 3,1 km/h (1 Bft)
01.09.2012 19:10 10,6 C 93 % 0,0 l/m 3,5 km/h (1 Bft) S-SW 202 9,5 C 10,8 C 4,3 km/h (1 Bft)
01.09.2012 19:15 10,5 C 93 % 0,0 l/m 3,2 km/h (1 Bft) W 270 9,4 C 10,8 C 2,7 km/h (1 Bft)
01.09.2012 19:20 10,5 C 93 % 0,0 l/m 3,9 km/h (1 Bft) W 270 9,4 C 10,7 C 6,6 km/h (2 Bft)
01.09.2012 19:25 10,5 C 93 % 0,0 l/m 3,2 km/h (1 Bft) N-NW 337 9,4 C 10,6 C 0,0 km/h (0 Bft)
01.09.2012 19:30 10,5 C 93 % 0,0 l/m 2,9 km/h (1 Bft) W 270 9,4 C 10,6 C 5,3 km/h (1 Bft)
01.09.2012 19:35 10,4 C 93 % 0,0 l/m 3,1 km/h (1 Bft) W 270 9,3 C 10,5 C 5,5 km/h (1 Bft)
01.09.2012 19:40 10,4 C 93 % 0,0 l/m 3,4 km/h (1 Bft) W-NW 292 9,3 C 10,4 C 1,9 km/h (1 Bft)
01.09.2012 19:45 10,4 C 93 % 0,0 l/m 2,6 km/h (1 Bft) N 360 9,3 C 10,4 C 5,5 km/h (1 Bft)
01.09.2012 19:50 10,4 C 93 % 0,0 l/m 1,6 km/h (1 Bft) W 270 9,3 C 10,4 C 1,8 km/h (1 Bft)
01.09.2012 19:55 10,4 C 93 % 0,0 l/m 1,6 km/h (1 Bft) W-NW 292 9,3 C 10,4 C 2,7 km/h (1 Bft)
01.09.2012 20:00 10,4 C 93 % 0,0 l/m 1,6 km/h (1 Bft) W-NW 292 9,3 C 10,4 C 4,2 km/h (1 Bft)
01.09.2012 20:05 10,3 C 94 % 0,0 l/m 2,1 km/h (1 Bft) W 270 9,4 C 10,4 C 2,4 km/h (1 Bft)
01.09.2012 20:10 10,3 C 94 % 0,0 l/m 2,4 km/h (1 Bft) W-NW 292 9,4 C 10,3 C 4,2 km/h (1 Bft)
01.09.2012 20:15 10,3 C 94 % 0,0 l/m 1,8 km/h (1 Bft) O 90 9,4 C 10,3 C 0,0 km/h (0 Bft)
01.09.2012 20:20 10,3 C 94 % 0,0 l/m 0,5 km/h (0 Bft) O-NO 67 9,4 C 10,3 C 0,0 km/h (0 Bft)
01.09.2012 20:25 10,3 C 94 % 0,0 l/m 0,6 km/h (0 Bft) SW 225 9,4 C 10,2 C 0,0 km/h (0 Bft)
01.09.2012 20:30 10,3 C 94 % 0,0 l/m 1,3 km/h (1 Bft) W-NW 292 9,4 C 10,2 C 4,8 km/h (1 Bft)
01.09.2012 20:35 10,3 C 94 % 0,0 l/m 1,4 km/h (1 Bft) NW 315 9,4 C 10,2 C 2,4 km/h (1 Bft)
01.09.2012 20:40 10,3 C 94 % 0,0 l/m 1,4 km/h (1 Bft) S-SW 202 9,4 C 10,2 C 1,6 km/h (1 Bft)
01.09.2012 20:45 10,3 C 94 % 0,0 l/m 0,6 km/h (0 Bft) W-NW 292 9,4 C 10,2 C 0,0 km/h (0 Bft)
01.09.2012 20:50 10,3 C 94 % 0,0 l/m 0,5 km/h (0 Bft) NW 315 9,4 C 10,2 C 0,0 km/h (0 Bft)
01.09.2012 20:55 10,3 C 94 % 0,0 l/m 1,0 km/h (0 Bft) W 270 9,4 C 10,2 C 2,1 km/h (1 Bft)
01.09.2012 21:00 10,3 C 94 % 0,0 l/m 1,3 km/h (1 Bft) N 360 9,4 C 10,2 C 0,0 km/h (0 Bft)
01.09.2012 21:05 10,3 C 94 % 0,0 l/m 1,6 km/h (1 Bft) W-SW 247 9,4 C 10,2 C 1,8 km/h (1 Bft)
01.09.2012 21:10 10,3 C 94 % 0,0 l/m 1,3 km/h (1 Bft) N 360 9,4 C 10,2 C 0,0 km/h (0 Bft)
01.09.2012 21:15 10,3 C 94 % 0,0 l/m 0,8 km/h (0 Bft) N-NW 337 9,4 C 10,2 C 0,0 km/h (0 Bft)
01.09.2012 21:20 10,3 C 95 % 0,0 l/m 0,6 km/h (0 Bft) NW 315 9,5 C 10,2 C 3,1 km/h (1 Bft)
01.09.2012 21:25 10,3 C 95 % 0,0 l/m 0,8 km/h (0 Bft) W-NW 292 9,5 C 10,2 C 2,6 km/h (1 Bft)
01.09.2012 21:30 10,3 C 95 % 0,0 l/m 0,8 km/h (0 Bft) N-NW 337 9,5 C 10,2 C 1,9 km/h (1 Bft)
01.09.2012 21:35 10,3 C 95 % 0,0 l/m 0,5 km/h (0 Bft) NO 45 9,5 C 10,2 C 0,0 km/h (0 Bft)
01.09.2012 21:40 10,3 C 95 % 0,0 l/m 0,2 km/h (0 Bft) W 270 9,5 C 10,2 C 1,8 km/h (1 Bft)
01.09.2012 21:45 10,3 C 95 % 0,0 l/m 0,3 km/h (0 Bft) W 270 9,5 C 10,2 C 0,0 km/h (0 Bft)
01.09.2012 21:50 10,3 C 95 % 0,0 l/m 0,6 km/h (0 Bft) W-NW 292 9,5 C 10,2 C 0,0 km/h (0 Bft)
01.09.2012 21:55 10,3 C 95 % 0,0 l/m 0,6 km/h (0 Bft) N-NW 337 9,5 C 10,2 C 1,6 km/h (1 Bft)
01.09.2012 22:00 10,3 C 95 % 0,0 l/m 1,3 km/h (1 Bft) W-NW 292 9,5 C 10,2 C 1,8 km/h (1 Bft)
01.09.2012 22:05 10,3 C 95 % 0,0 l/m 1,4 km/h (1 Bft) W-SW 247 9,5 C 10,2 C 0,0 km/h (0 Bft)
01.09.2012 22:10 10,3 C 95 % 0,0 l/m 1,1 km/h (1 Bft) N-NO 22 9,5 C 10,2 C 0,0 km/h (0 Bft)
01.09.2012 22:15 10,3 C 95 % 0,0 l/m 0,3 km/h (0 Bft) N 360 9,5 C 10,2 C 0,0 km/h (0 Bft)
01.09.2012 22:20 10,3 C 95 % 0,0 l/m 0,5 km/h (0 Bft) S-SW 202 9,5 C 10,2 C 3,4 km/h (1 Bft)
01.09.2012 22:25 10,3 C 95 % 0,0 l/m 1,1 km/h (1 Bft) W-NW 292 9,5 C 10,2 C 1,9 km/h (1 Bft)
01.09.2012 22:30 10,3 C 95 % 0,0 l/m 1,9 km/h (1 Bft) N-NW 337 9,5 C 10,2 C 2,1 km/h (1 Bft)
01.09.2012 22:35 10,3 C 95 % 0,0 l/m 1,8 km/h (1 Bft) W-NW 292 9,5 C 10,2 C 2,7 km/h (1 Bft)
01.09.2012 22:40 10,3 C 95 % 0,0 l/m 1,8 km/h (1 Bft) N-NW 337 9,5 C 10,2 C 4,2 km/h (1 Bft)
01.09.2012 22:45 10,2 C 95 % 0,0 l/m 1,8 km/h (1 Bft) N-NW 337 9,4 C 10,2 C 1,6 km/h (1 Bft)
01.09.2012 22:50 10,2 C 95 % 0,0 l/m 1,8 km/h (1 Bft) N-NW 337 9,4 C 10,2 C 2,4 km/h (1 Bft)
01.09.2012 22:55 10,2 C 95 % 0,0 l/m 1,6 km/h (1 Bft) W 270 9,4 C 10,2 C 3,2 km/h (1 Bft)
01.09.2012 23:00 10,2 C 95 % 0,0 l/m 1,9 km/h (1 Bft) NW 315 9,4 C 10,2 C 2,1 km/h (1 Bft)
01.09.2012 23:05 10,3 C 95 % 0,0 l/m 1,4 km/h (1 Bft) N-NW 337 9,5 C 10,2 C 0,0 km/h (0 Bft)
01.09.2012 23:10 10,3 C 95 % 0,0 l/m 1,6 km/h (1 Bft) W-NW 292 9,5 C 10,2 C 4,7 km/h (1 Bft)
01.09.2012 23:15 10,2 C 95 % 0,0 l/m 1,6 km/h (1 Bft) NW 315 9,4 C 10,2 C 0,0 km/h (0 Bft)
01.09.2012 23:20 10,2 C 95 % 0,0 l/m 1,3 km/h (1 Bft) N-NW 337 9,4 C 10,2 C 2,4 km/h (1 Bft)
01.09.2012 23:25 10,2 C 95 % 0,0 l/m 2,1 km/h (1 Bft) W-NW 292 9,4 C 10,2 C 5,0 km/h (1 Bft)
01.09.2012 23:30 10,2 C 95 % 0,0 l/m 2,3 km/h (1 Bft) W 270 9,4 C 10,2 C 3,4 km/h (1 Bft)
01.09.2012 23:35 10,2 C 95 % 0,0 l/m 1,6 km/h (1 Bft) W 270 9,4 C 10,2 C 3,1 km/h (1 Bft)
01.09.2012 23:40 10,2 C 95 % 0,0 l/m 1,3 km/h (1 Bft) W-NW 292 9,4 C 10,2 C 2,7 km/h (1 Bft)
01.09.2012 23:45 10,2 C 95 % 0,0 l/m 1,4 km/h (1 Bft) N-NW 337 9,4 C 10,1 C 2,9 km/h (1 Bft)
01.09.2012 23:50 10,2 C 95 % 0,0 l/m 2,3 km/h (1 Bft) W 270 9,4 C 10,1 C 4,7 km/h (1 Bft)
01.09.2012 23:55 10,2 C 95 % 0,0 l/m 2,4 km/h (1 Bft) W-NW 292 9,4 C 10,1 C 1,9 km/h (1 Bft)
_ Min-Zeit 06:15 18:50 - 07:40 - - 06:15 06:25 23:15
Minimum _ 8,1 C 92 % - 0,0 km/h (0 Bft) - - 7,5 C 7,9 C 0,0 km/h (0 Bft)
_ Max-Zeit 16:00 12:20 04:10 15:50 - - 16:00 16:05 15:40
Maximum _ 11,5 C 96 % 0,7 l/m 6,6 km/h
NO (2 Bft)
- - 10,7 C 12,5 C 14,2 km/h
W-NW (3 Bft)
Durchschnitt _ 9,6 C 95 % #2,7 l/m 2,0 km/h (1 Bft) W-NW - 8,8 C 9,7 C 2,7 km/h (1 Bft)